sensor_id;sensor_type;location;lat;lon;timestamp;pressure;altitude;pressure_sealevel;temperature;humidity
10518;BME280;5307;42.548;22.968;2023-04-01T00:01:59;93022.25;;;10.44;77.63
10518;BME280;5307;42.548;22.968;2023-04-01T00:04:25;93021.25;;;10.56;74.69
10518;BME280;5307;42.548;22.968;2023-04-01T00:06:52;93024.69;;;10.42;77.80
10518;BME280;5307;42.548;22.968;2023-04-01T00:09:19;93028.94;;;10.43;77.57
10518;BME280;5307;42.548;22.968;2023-04-01T00:11:46;93030.63;;;10.55;73.05
10518;BME280;5307;42.548;22.968;2023-04-01T00:14:14;93026.00;;;10.70;69.92
10518;BME280;5307;42.548;22.968;2023-04-01T00:16:41;93027.53;;;11.01;63.24
10518;BME280;5307;42.548;22.968;2023-04-01T00:19:07;93022.06;;;11.01;62.40
10518;BME280;5307;42.548;22.968;2023-04-01T00:21:34;93018.13;;;11.02;62.08
10518;BME280;5307;42.548;22.968;2023-04-01T00:24:02;93017.16;;;11.05;61.98
10518;BME280;5307;42.548;22.968;2023-04-01T00:26:29;93013.41;;;11.03;61.28
10518;BME280;5307;42.548;22.968;2023-04-01T00:28:55;93001.44;;;11.00;61.30
10518;BME280;5307;42.548;22.968;2023-04-01T00:31:24;93007.94;;;11.03;61.79
10518;BME280;5307;42.548;22.968;2023-04-01T00:33:51;92997.09;;;10.93;61.69
10518;BME280;5307;42.548;22.968;2023-04-01T00:36:19;92997.09;;;10.93;61.99
10518;BME280;5307;42.548;22.968;2023-04-01T00:38:47;93000.56;;;10.94;62.96
10518;BME280;5307;42.548;22.968;2023-04-01T00:41:15;92995.31;;;10.90;63.31
10518;BME280;5307;42.548;22.968;2023-04-01T00:43:43;92997.00;;;10.88;62.36
10518;BME280;5307;42.548;22.968;2023-04-01T00:46:10;92998.13;;;10.81;62.85
10518;BME280;5307;42.548;22.968;2023-04-01T00:48:41;92990.03;;;10.72;63.67
10518;BME280;5307;42.548;22.968;2023-04-01T00:51:11;92986.16;;;10.79;62.83
10518;BME280;5307;42.548;22.968;2023-04-01T00:53:43;92973.53;;;10.81;62.08
10518;BME280;5307;42.548;22.968;2023-04-01T00:56:12;92961.38;;;10.82;62.02
10518;BME280;5307;42.548;22.968;2023-04-01T00:58:44;92958.09;;;10.93;61.29
10518;BME280;5307;42.548;22.968;2023-04-01T01:01:12;92953.50;;;10.99;59.87
10518;BME280;5307;42.548;22.968;2023-04-01T01:03:41;92957.63;;;11.09;59.42
10518;BME280;5307;42.548;22.968;2023-04-01T01:06:11;92948.19;;;11.10;58.87
10518;BME280;5307;42.548;22.968;2023-04-01T01:08:59;92945.75;;;11.12;58.58
10518;BME280;5307;42.548;22.968;2023-04-01T01:11:32;92939.72;;;11.08;58.95
10518;BME280;5307;42.548;22.968;2023-04-01T01:14:07;92933.22;;;11.06;58.68
10518;BME280;5307;42.548;22.968;2023-04-01T01:16:43;92938.50;;;11.09;58.08
10518;BME280;5307;42.548;22.968;2023-04-01T01:19:28;92940.00;;;11.10;58.30
10518;BME280;5307;42.548;22.968;2023-04-01T01:22:14;92934.25;;;11.08;58.38
10518;BME280;5307;42.548;22.968;2023-04-01T01:25:08;92939.72;;;11.08;58.34
10518;BME280;5307;42.548;22.968;2023-04-01T01:27:40;92938.59;;;11.15;57.55
10518;BME280;5307;42.548;22.968;2023-04-01T01:30:22;92931.97;;;11.21;57.47
10518;BME280;5307;42.548;22.968;2023-04-01T01:33:09;92929.16;;;11.16;57.58
10518;BME280;5307;42.548;22.968;2023-04-01T01:35:44;92933.03;;;11.09;58.09
10518;BME280;5307;42.548;22.968;2023-04-01T01:38:15;92927.28;;;11.07;57.72
10518;BME280;5307;42.548;22.968;2023-04-01T01:40:44;92917.88;;;11.08;58.24
10518;BME280;5307;42.548;22.968;2023-04-01T01:43:14;92915.06;;;11.03;57.80
10518;BME280;5307;42.548;22.968;2023-04-01T01:45:44;92921.53;;;11.05;57.93
10518;BME280;5307;42.548;22.968;2023-04-01T01:48:13;92918.06;;;11.05;58.42
10518;BME280;5307;42.548;22.968;2023-04-01T01:50:43;92915.06;;;11.03;58.47
10518;BME280;5307;42.548;22.968;2023-04-01T01:53:12;92905.25;;;10.96;58.38
10518;BME280;5307;42.548;22.968;2023-04-01T01:55:41;92909.22;;;10.95;58.39
10518;BME280;5307;42.548;22.968;2023-04-01T01:58:11;92905.84;;;11.00;58.18
10518;BME280;5307;42.548;22.968;2023-04-01T02:00:41;92905.56;;;10.98;58.10
10518;BME280;5307;42.548;22.968;2023-04-01T02:03:10;92920.25;;;11.00;58.31
10518;BME280;5307;42.548;22.968;2023-04-01T02:05:39;92909.78;;;10.99;58.32
10518;BME280;5307;42.548;22.968;2023-04-01T02:08:10;92909.22;;;10.95;58.61
10518;BME280;5307;42.548;22.968;2023-04-01T02:10:41;92908.72;;;10.96;58.49
10518;BME280;5307;42.548;22.968;2023-04-01T02:13:15;92904.59;;;11.01;58.24
10518;BME280;5307;42.548;22.968;2023-04-01T02:15:46;92899.63;;;10.99;58.38
10518;BME280;5307;42.548;22.968;2023-04-01T02:18:15;92902.53;;;10.96;58.41
10518;BME280;5307;42.548;22.968;2023-04-01T02:20:43;92897.06;;;10.96;58.46
10518;BME280;5307;42.548;22.968;2023-04-01T02:23:12;92898.97;;;10.90;59.24
10518;BME280;5307;42.548;22.968;2023-04-01T02:25:41;92891.44;;;10.85;59.52
10518;BME280;5307;42.548;22.968;2023-04-01T02:28:10;92892.47;;;10.73;59.98
10518;BME280;5307;42.548;22.968;2023-04-01T02:30:41;92897.81;;;10.82;59.68
10518;BME280;5307;42.548;22.968;2023-04-01T02:33:09;92903.66;;;10.89;59.97
10518;BME280;5307;42.548;22.968;2023-04-01T02:35:36;92913.38;;;10.90;60.38
10518;BME280;5307;42.548;22.968;2023-04-01T02:38:04;92901.22;;;10.77;60.54
10518;BME280;5307;42.548;22.968;2023-04-01T02:40:43;92918.06;;;10.90;60.14
10518;BME280;5307;42.548;22.968;2023-04-01T02:43:10;92925.03;;;10.91;60.15
10518;BME280;5307;42.548;22.968;2023-04-01T02:45:37;92921.28;;;10.88;60.63
10518;BME280;5307;42.548;22.968;2023-04-01T02:48:04;92927.69;;;10.85;61.91
10518;BME280;5307;42.548;22.968;2023-04-01T02:50:31;92924.75;;;10.89;62.67
10518;BME280;5307;42.548;22.968;2023-04-01T02:52:57;92935.59;;;10.83;63.73
10518;BME280;5307;42.548;22.968;2023-04-01T02:55:25;92925.25;;;10.87;65.42
10518;BME280;5307;42.548;22.968;2023-04-01T02:57:53;92926.06;;;10.64;69.62
10518;BME280;5307;42.548;22.968;2023-04-01T03:00:19;92916.03;;;10.70;69.03
10518;BME280;5307;42.548;22.968;2023-04-01T03:02:46;92918.44;;;10.68;68.52
10518;BME280;5307;42.548;22.968;2023-04-01T03:05:16;92909.13;;;10.75;66.23
10518;BME280;5307;42.548;22.968;2023-04-01T03:07:43;92916.56;;;10.74;66.52
10518;BME280;5307;42.548;22.968;2023-04-01T03:10:10;92894.53;;;10.78;65.66
10518;BME280;5307;42.548;22.968;2023-04-01T03:12:37;92884.16;;;10.82;64.94
10518;BME280;5307;42.548;22.968;2023-04-01T03:15:06;92871.25;;;10.82;64.16
10518;BME280;5307;42.548;22.968;2023-04-01T03:17:33;92842.44;;;10.81;64.89
10518;BME280;5307;42.548;22.968;2023-04-01T03:20:01;92842.84;;;10.74;66.43
10518;BME280;5307;42.548;22.968;2023-04-01T03:22:30;92829.16;;;10.89;64.07
10518;BME280;5307;42.548;22.968;2023-04-01T03:24:57;92830.75;;;10.95;62.09
10518;BME280;5307;42.548;22.968;2023-04-01T03:27:23;92852.69;;;11.01;61.65
10518;BME280;5307;42.548;22.968;2023-04-01T03:29:50;92848.47;;;11.00;62.48
10518;BME280;5307;42.548;22.968;2023-04-01T03:32:18;92845.56;;;10.89;63.34
10518;BME280;5307;42.548;22.968;2023-04-01T03:34:45;92844.44;;;10.81;64.38
10518;BME280;5307;42.548;22.968;2023-04-01T03:37:12;92842.72;;;10.83;63.68
10518;BME280;5307;42.548;22.968;2023-04-01T03:39:39;92836.13;;;10.90;62.57
10518;BME280;5307;42.548;22.968;2023-04-01T03:42:06;92832.19;;;10.91;61.59
10518;BME280;5307;42.548;22.968;2023-04-01T03:44:33;92828.69;;;10.90;61.24
10518;BME280;5307;42.548;22.968;2023-04-01T03:47:00;92819.75;;;10.90;60.77
10518;BME280;5307;42.548;22.968;2023-04-01T03:49:28;92825.75;;;10.94;60.55
10518;BME280;5307;42.548;22.968;2023-04-01T03:51:57;92820.56;;;10.96;60.10
10518;BME280;5307;42.548;22.968;2023-04-01T03:54:24;92803.91;;;10.94;59.72
10518;BME280;5307;42.548;22.968;2023-04-01T03:56:51;92798.84;;;10.87;60.27
10518;BME280;5307;42.548;22.968;2023-04-01T03:59:18;92803.47;;;10.81;61.09
10518;BME280;5307;42.548;22.968;2023-04-01T04:01:46;92804.16;;;10.76;61.39
10518;BME280;5307;42.548;22.968;2023-04-01T04:04:13;92793.59;;;10.68;61.23
10518;BME280;5307;42.548;22.968;2023-04-01T04:06:41;92799.25;;;10.65;61.57
10518;BME280;5307;42.548;22.968;2023-04-01T04:09:08;92784.59;;;10.62;61.91
10518;BME280;5307;42.548;22.968;2023-04-01T04:11:34;92791.81;;;10.65;62.22
10518;BME280;5307;42.548;22.968;2023-04-01T04:14:01;92787.88;;;10.66;61.64
10518;BME280;5307;42.548;22.968;2023-04-01T04:16:29;92783.63;;;10.65;62.17
10518;BME280;5307;42.548;22.968;2023-04-01T04:18:55;92782.31;;;10.61;62.00
10518;BME280;5307;42.548;22.968;2023-04-01T04:21:22;92782.88;;;10.65;61.99
10518;BME280;5307;42.548;22.968;2023-04-01T04:23:51;92767.25;;;10.65;61.80
10518;BME280;5307;42.548;22.968;2023-04-01T04:26:17;92774.22;;;10.66;63.09
10518;BME280;5307;42.548;22.968;2023-04-01T04:28:44;92761.59;;;10.69;61.97
10518;BME280;5307;42.548;22.968;2023-04-01T04:31:12;92766.28;;;10.68;62.03
10518;BME280;5307;42.548;22.968;2023-04-01T04:33:40;92755.38;;;10.68;62.11
10518;BME280;5307;42.548;22.968;2023-04-01T04:36:08;92747.13;;;10.63;62.35
10518;BME280;5307;42.548;22.968;2023-04-01T04:38:35;92738.84;;;10.57;63.15
10518;BME280;5307;42.548;22.968;2023-04-01T04:41:03;92736.19;;;10.63;62.76
10518;BME280;5307;42.548;22.968;2023-04-01T04:43:30;92737.97;;;10.66;62.37
10518;BME280;5307;42.548;22.968;2023-04-01T04:45:56;92729.78;;;10.66;62.03
10518;BME280;5307;42.548;22.968;2023-04-01T04:48:23;92730.47;;;10.61;62.38
10518;BME280;5307;42.548;22.968;2023-04-01T04:50:50;92725.75;;;10.61;62.03
10518;BME280;5307;42.548;22.968;2023-04-01T04:53:18;92716.44;;;10.53;61.99
10518;BME280;5307;42.548;22.968;2023-04-01T04:55:46;92730.84;;;10.54;62.36
10518;BME280;5307;42.548;22.968;2023-04-01T04:58:15;92738.47;;;10.50;62.41
10518;BME280;5307;42.548;22.968;2023-04-01T05:00:42;92717.44;;;10.35;62.92
10518;BME280;5307;42.548;22.968;2023-04-01T05:03:09;92712.16;;;10.32;63.50
10518;BME280;5307;42.548;22.968;2023-04-01T05:05:36;92709.03;;;10.39;63.61
10518;BME280;5307;42.548;22.968;2023-04-01T05:08:04;92705.47;;;10.33;63.34
10518;BME280;5307;42.548;22.968;2023-04-01T05:10:30;92707.47;;;10.32;63.24
10518;BME280;5307;42.548;22.968;2023-04-01T05:12:57;92703.50;;;10.33;63.87
10518;BME280;5307;42.548;22.968;2023-04-01T05:15:26;92697.03;;;10.31;64.04
10518;BME280;5307;42.548;22.968;2023-04-01T05:17:52;92705.47;;;10.33;64.73
10518;BME280;5307;42.548;22.968;2023-04-01T05:20:19;92708.56;;;10.40;64.39
10518;BME280;5307;42.548;22.968;2023-04-01T05:22:46;92706.47;;;10.50;63.61
10518;BME280;5307;42.548;22.968;2023-04-01T05:25:13;92712.09;;;10.61;63.19
10518;BME280;5307;42.548;22.968;2023-04-01T05:27:40;92711.69;;;10.68;62.82
10518;BME280;5307;42.548;22.968;2023-04-01T05:30:07;92700.09;;;10.74;63.54
10518;BME280;5307;42.548;22.968;2023-04-01T05:32:35;92696.00;;;10.84;64.14
10518;BME280;5307;42.548;22.968;2023-04-01T05:35:02;92688.22;;;10.97;63.84
10518;BME280;5307;42.548;22.968;2023-04-01T05:37:29;92684.97;;;11.13;64.21
10518;BME280;5307;42.548;22.968;2023-04-01T05:39:56;92672.75;;;11.55;61.20
10518;BME280;5307;42.548;22.968;2023-04-01T05:42:24;92669.38;;;11.92;59.26
10518;BME280;5307;42.548;22.968;2023-04-01T05:44:51;92666.63;;;12.23;57.30
10518;BME280;5307;42.548;22.968;2023-04-01T05:47:17;92664.94;;;12.68;56.28
10518;BME280;5307;42.548;22.968;2023-04-01T05:49:46;92660.22;;;13.23;55.47
10518;BME280;5307;42.548;22.968;2023-04-01T05:52:12;92670.00;;;13.41;52.82
10518;BME280;5307;42.548;22.968;2023-04-01T05:54:39;92671.97;;;13.29;53.25
10518;BME280;5307;42.548;22.968;2023-04-01T05:57:06;92681.72;;;13.41;53.14
10518;BME280;5307;42.548;22.968;2023-04-01T05:59:33;92673.09;;;13.05;53.46
10518;BME280;5307;42.548;22.968;2023-04-01T06:02:00;92659.31;;;12.89;52.85
10518;BME280;5307;42.548;22.968;2023-04-01T06:04:28;92656.56;;;12.83;53.98
10518;BME280;5307;42.548;22.968;2023-04-01T06:07:00;92661.50;;;12.79;53.17
10518;BME280;5307;42.548;22.968;2023-04-01T06:09:29;92661.78;;;12.81;54.07
10518;BME280;5307;42.548;22.968;2023-04-01T06:14:53;92676.66;;;12.74;54.50
10518;BME280;5307;42.548;22.968;2023-04-01T06:17:28;92661.97;;;12.72;55.02
10518;BME280;5307;42.548;22.968;2023-04-01T06:20:03;92651.00;;;12.72;54.92
10518;BME280;5307;42.548;22.968;2023-04-01T06:22:57;92644.53;;;12.75;54.42
10518;BME280;5307;42.548;22.968;2023-04-01T06:28:35;92630.34;;;12.76;54.50
10518;BME280;5307;42.548;22.968;2023-04-01T06:31:10;92637.63;;;12.85;54.72
10518;BME280;5307;42.548;22.968;2023-04-01T06:33:56;92642.41;;;12.96;53.93
10518;BME280;5307;42.548;22.968;2023-04-01T06:36:50;92637.25;;;13.15;52.98
10518;BME280;5307;42.548;22.968;2023-04-01T06:39:31;92633.75;;;13.14;53.21
10518;BME280;5307;42.548;22.968;2023-04-01T06:42:15;92639.00;;;13.12;52.20
10518;BME280;5307;42.548;22.968;2023-04-01T06:44:54;92637.44;;;13.05;52.20
10518;BME280;5307;42.548;22.968;2023-04-01T06:47:38;92650.41;;;13.05;51.69
10518;BME280;5307;42.548;22.968;2023-04-01T06:50:15;92646.16;;;12.98;51.65
10518;BME280;5307;42.548;22.968;2023-04-01T06:52:50;92632.19;;;12.96;51.62
10518;BME280;5307;42.548;22.968;2023-04-01T06:55:29;92634.19;;;12.96;51.66
10518;BME280;5307;42.548;22.968;2023-04-01T06:58:03;92626.25;;;13.03;51.54
10518;BME280;5307;42.548;22.968;2023-04-01T07:00:36;92624.78;;;13.14;50.79
10518;BME280;5307;42.548;22.968;2023-04-01T07:03:15;92620.34;;;13.22;50.83
10518;BME280;5307;42.548;22.968;2023-04-01T07:05:44;92626.84;;;13.24;50.61
10518;BME280;5307;42.548;22.968;2023-04-01T07:08:15;92624.84;;;13.25;50.43
10518;BME280;5307;42.548;22.968;2023-04-01T07:10:48;92622.63;;;13.29;50.97
10518;BME280;5307;42.548;22.968;2023-04-01T07:13:21;92622.63;;;13.29;51.35
10518;BME280;5307;42.548;22.968;2023-04-01T07:15:58;92618.88;;;13.32;50.06
10518;BME280;5307;42.548;22.968;2023-04-01T07:18:32;92623.34;;;13.24;50.31
10518;BME280;5307;42.548;22.968;2023-04-01T07:21:01;92624.84;;;13.25;52.38
10518;BME280;5307;42.548;22.968;2023-04-01T07:23:32;92622.81;;;13.20;52.02
10518;BME280;5307;42.548;22.968;2023-04-01T07:26:14;92626.06;;;13.18;51.28
10518;BME280;5307;42.548;22.968;2023-04-01T07:28:41;92622.03;;;13.14;51.67
10518;BME280;5307;42.548;22.968;2023-04-01T07:31:16;92624.53;;;13.12;51.54
10518;BME280;5307;42.548;22.968;2023-04-01T07:33:54;92615.03;;;13.07;51.94
10518;BME280;5307;42.548;22.968;2023-04-01T07:36:28;92621.50;;;13.04;51.91
10518;BME280;5307;42.548;22.968;2023-04-01T07:39:00;92607.53;;;12.96;52.21
10518;BME280;5307;42.548;22.968;2023-04-01T07:41:42;92613.97;;;12.93;53.17
10518;BME280;5307;42.548;22.968;2023-04-01T07:44:18;92606.50;;;12.88;53.89
10518;BME280;5307;42.548;22.968;2023-04-01T07:46:59;92615.22;;;12.87;54.41
10518;BME280;5307;42.548;22.968;2023-04-01T07:49:37;92598.28;;;12.88;53.39
10518;BME280;5307;42.548;22.968;2023-04-01T07:52:13;92590.81;;;12.94;52.86
10518;BME280;5307;42.548;22.968;2023-04-01T07:54:45;92584.59;;;12.88;53.76
10518;BME280;5307;42.548;22.968;2023-04-01T07:57:19;92579.34;;;12.90;53.39
10518;BME280;5307;42.548;22.968;2023-04-01T07:59:54;92573.88;;;12.90;53.63
10518;BME280;5307;42.548;22.968;2023-04-01T08:02:32;92576.13;;;12.92;53.28
10518;BME280;5307;42.548;22.968;2023-04-01T08:05:06;92572.66;;;12.97;53.20
10518;BME280;5307;42.548;22.968;2023-04-01T08:07:40;92565.19;;;12.97;52.96
10518;BME280;5307;42.548;22.968;2023-04-01T08:10:17;92561.97;;;13.04;52.37
10518;BME280;5307;42.548;22.968;2023-04-01T08:12:56;92555.75;;;13.10;52.75
10518;BME280;5307;42.548;22.968;2023-04-01T08:15:28;92555.00;;;13.15;51.91
10518;BME280;5307;42.548;22.968;2023-04-01T08:18:08;92543.06;;;13.18;51.99
10518;BME280;5307;42.548;22.968;2023-04-01T08:20:41;92528.41;;;13.26;52.62
10518;BME280;5307;42.548;22.968;2023-04-01T08:23:14;92526.66;;;13.62;51.82
10518;BME280;5307;42.548;22.968;2023-04-01T08:25:47;92516.94;;;13.61;50.69
10518;BME280;5307;42.548;22.968;2023-04-01T08:28:22;92520.91;;;13.77;51.13
10518;BME280;5307;42.548;22.968;2023-04-01T08:30:53;92519.94;;;13.63;51.48
10518;BME280;5307;42.548;22.968;2023-04-01T08:33:27;92508.72;;;13.61;51.79
10518;BME280;5307;42.548;22.968;2023-04-01T08:35:57;92515.19;;;13.81;51.40
10518;BME280;5307;42.548;22.968;2023-04-01T08:38:30;92516.66;;;13.93;50.57
10518;BME280;5307;42.548;22.968;2023-04-01T08:41:00;92522.41;;;14.01;49.78
10518;BME280;5307;42.548;22.968;2023-04-01T08:43:59;92525.38;;;14.14;48.84
10518;BME280;5307;42.548;22.968;2023-04-01T08:46:55;92515.38;;;14.16;49.02
10518;BME280;5307;42.548;22.968;2023-04-01T08:49:33;92508.13;;;14.24;48.51
10518;BME280;5307;42.548;22.968;2023-04-01T08:52:21;92500.41;;;14.23;48.01
10518;BME280;5307;42.548;22.968;2023-04-01T08:55:26;92496.63;;;14.20;49.27
10518;BME280;5307;42.548;22.968;2023-04-01T09:00:53;92481.38;;;14.36;48.19
10518;BME280;5307;42.548;22.968;2023-04-01T09:03:42;92483.38;;;14.36;48.25
10518;BME280;5307;42.548;22.968;2023-04-01T09:09:30;92481.84;;;14.51;47.27
10518;BME280;5307;42.548;22.968;2023-04-01T09:12:28;92479.34;;;14.42;48.29
10518;BME280;5307;42.548;22.968;2023-04-01T09:15:25;92461.59;;;14.49;46.36
10518;BME280;5307;42.548;22.968;2023-04-01T09:18:20;92468.13;;;14.51;46.15
10518;BME280;5307;42.548;22.968;2023-04-01T09:21:18;92456.81;;;14.61;45.85
10518;BME280;5307;42.548;22.968;2023-04-01T09:24:11;92452.28;;;14.69;45.61
10518;BME280;5307;42.548;22.968;2023-04-01T09:27:05;92458.53;;;14.69;46.09
10518;BME280;5307;42.548;22.968;2023-04-01T09:29:55;92444.75;;;14.75;46.50
10518;BME280;5307;42.548;22.968;2023-04-01T09:32:54;92444.56;;;14.67;46.78
10518;BME280;5307;42.548;22.968;2023-04-01T09:35:34;92428.81;;;14.68;46.95
10518;BME280;5307;42.548;22.968;2023-04-01T09:38:20;92436.75;;;14.77;48.02
10518;BME280;5307;42.548;22.968;2023-04-01T09:40:53;92430.31;;;14.69;48.41
10518;BME280;5307;42.548;22.968;2023-04-01T09:43:27;92431.34;;;14.60;48.77
10518;BME280;5307;42.548;22.968;2023-04-01T09:46:08;92437.13;;;14.57;48.95
10518;BME280;5307;42.548;22.968;2023-04-01T09:48:52;92424.13;;;14.57;49.81
10518;BME280;5307;42.548;22.968;2023-04-01T09:51:32;92415.09;;;14.62;49.64
10518;BME280;5307;42.548;22.968;2023-04-01T09:54:12;92412.28;;;14.73;50.03
10518;BME280;5307;42.548;22.968;2023-04-01T10:06:13;92388.81;;;14.72;50.07
10518;BME280;5307;42.548;22.968;2023-04-01T10:09:16;92373.03;;;14.78;50.78
10518;BME280;5307;42.548;22.968;2023-04-01T10:12:18;92380.94;;;14.93;50.39
10518;BME280;5307;42.548;22.968;2023-04-01T10:21:47;92354.22;;;15.18;48.63
10518;BME280;5307;42.548;22.968;2023-04-01T10:24:59;92352.41;;;15.26;48.39
10518;BME280;5307;42.548;22.968;2023-04-01T10:27:42;92347.59;;;15.32;47.14
10518;BME280;5307;42.548;22.968;2023-04-01T10:30:42;92345.34;;;15.31;46.58
10518;BME280;5307;42.548;22.968;2023-04-01T10:33:37;92348.97;;;15.44;46.27
10518;BME280;5307;42.548;22.968;2023-04-01T10:36:32;92333.06;;;15.37;46.41
10518;BME280;5307;42.548;22.968;2023-04-01T10:39:18;92329.28;;;15.40;46.94
10518;BME280;5307;42.548;22.968;2023-04-01T10:55:59;92300.31;;;15.34;47.40
10518;BME280;5307;42.548;22.968;2023-04-01T11:08:14;92350.78;;;15.12;49.99
10518;BME280;5307;42.548;22.968;2023-04-01T11:23:24;92491.72;;;13.01;73.23
10518;BME280;5307;42.548;22.968;2023-04-01T11:26:02;92511.34;;;12.24;82.50
10518;BME280;5307;42.548;22.968;2023-04-01T11:28:52;92546.03;;;11.95;90.65
10518;BME280;5307;42.548;22.968;2023-04-01T11:31:39;92554.22;;;11.89;96.13
10518;BME280;5307;42.548;22.968;2023-04-01T11:34:23;92556.31;;;11.74;97.50
10518;BME280;5307;42.548;22.968;2023-04-01T11:37:03;92570.91;;;11.66;99.78
10518;BME280;5307;42.548;22.968;2023-04-01T11:39:38;92558.88;;;11.26;100.00
10518;BME280;5307;42.548;22.968;2023-04-01T11:42:19;92571.97;;;11.16;100.00
10518;BME280;5307;42.548;22.968;2023-04-01T11:45:00;92566.66;;;11.33;100.00
10518;BME280;5307;42.548;22.968;2023-04-01T11:47:58;92557.84;;;11.49;100.00
10518;BME280;5307;42.548;22.968;2023-04-01T11:50:41;92560.81;;;11.46;100.00
10518;BME280;5307;42.548;22.968;2023-04-01T11:53:19;92552.34;;;11.75;100.00
10518;BME280;5307;42.548;22.968;2023-04-01T11:55:57;92561.16;;;11.85;100.00
10518;BME280;5307;42.548;22.968;2023-04-01T11:58:49;92571.94;;;12.00;100.00
10518;BME280;5307;42.548;22.968;2023-04-01T12:01:28;92564.44;;;11.95;100.00
10518;BME280;5307;42.548;22.968;2023-04-01T12:04:24;92569.81;;;12.15;100.00
10518;BME280;5307;42.548;22.968;2023-04-01T12:07:01;92562.19;;;11.93;100.00
10518;BME280;5307;42.548;22.968;2023-04-01T12:09:35;92562.66;;;11.86;100.00
10518;BME280;5307;42.548;22.968;2023-04-01T12:12:12;92579.00;;;12.17;100.00
10518;BME280;5307;42.548;22.968;2023-04-01T12:14:45;92592.09;;;12.39;100.00
10518;BME280;5307;42.548;22.968;2023-04-01T12:17:25;92606.16;;;12.21;100.00
10518;BME280;5307;42.548;22.968;2023-04-01T12:19:58;92598.97;;;11.86;100.00
10518;BME280;5307;42.548;22.968;2023-04-01T12:22:43;92621.44;;;11.70;100.00
10518;BME280;5307;42.548;22.968;2023-04-01T12:28:25;92607.03;;;11.75;100.00
10518;BME280;5307;42.548;22.968;2023-04-01T12:31:09;92605.28;;;11.72;100.00
10518;BME280;5307;42.548;22.968;2023-04-01T12:33:59;92605.88;;;11.56;100.00
10518;BME280;5307;42.548;22.968;2023-04-01T12:36:43;92598.72;;;11.33;100.00
10518;BME280;5307;42.548;22.968;2023-04-01T12:39:36;92603.44;;;11.32;100.00
10518;BME280;5307;42.548;22.968;2023-04-01T12:42:16;92593.25;;;11.33;98.44
10518;BME280;5307;42.548;22.968;2023-04-01T12:45:02;92569.13;;;11.31;96.46
10518;BME280;5307;42.548;22.968;2023-04-01T12:48:14;92544.38;;;11.40;96.73
10518;BME280;5307;42.548;22.968;2023-04-01T12:51:05;92533.22;;;11.44;94.73
10518;BME280;5307;42.548;22.968;2023-04-01T12:53:54;92516.59;;;11.47;94.36
10518;BME280;5307;42.548;22.968;2023-04-01T12:56:33;92521.13;;;11.87;95.04
10518;BME280;5307;42.548;22.968;2023-04-01T12:59:43;92525.09;;;11.86;91.40
10518;BME280;5307;42.548;22.968;2023-04-01T13:02:26;92528.53;;;11.81;92.77
10518;BME280;5307;42.548;22.968;2023-04-01T13:05:24;92525.75;;;11.76;93.21
10518;BME280;5307;42.548;22.968;2023-04-01T13:08:09;92519.41;;;11.96;93.25
10518;BME280;5307;42.548;22.968;2023-04-01T13:11:02;92508.28;;;11.99;94.03
10518;BME280;5307;42.548;22.968;2023-04-01T13:13:53;92510.75;;;11.97;92.19
10518;BME280;5307;42.548;22.968;2023-04-01T13:16:26;92515.00;;;12.04;89.77
10518;BME280;5307;42.548;22.968;2023-04-01T13:18:58;92509.16;;;12.28;91.19
10518;BME280;5307;42.548;22.968;2023-04-01T13:21:38;92502.94;;;12.27;92.29
10518;BME280;5307;42.548;22.968;2023-04-01T13:24:15;92488.25;;;12.30;93.31
10518;BME280;5307;42.548;22.968;2023-04-01T13:26:55;92480.81;;;12.36;89.93
10518;BME280;5307;42.548;22.968;2023-04-01T13:29:29;92486.13;;;12.57;89.57
10518;BME280;5307;42.548;22.968;2023-04-01T13:32:09;92468.16;;;12.50;88.08
10518;BME280;5307;42.548;22.968;2023-04-01T13:37:44;92473.03;;;13.05;89.86
10518;BME280;5307;42.548;22.968;2023-04-01T13:40:24;92443.31;;;12.54;85.98
10518;BME280;5307;42.548;22.968;2023-04-01T13:42:55;92460.28;;;12.86;86.55
10518;BME280;5307;42.548;22.968;2023-04-01T13:45:30;92453.31;;;12.73;86.88
10518;BME280;5307;42.548;22.968;2023-04-01T13:48:27;92453.50;;;12.59;87.64
10518;BME280;5307;42.548;22.968;2023-04-01T13:51:21;92450.47;;;12.40;90.91
10518;BME280;5307;42.548;22.968;2023-04-01T13:54:15;92438.28;;;12.52;87.13
10518;BME280;5307;42.548;22.968;2023-04-01T13:56:57;92433.09;;;12.54;86.83
10518;BME280;5307;42.548;22.968;2023-04-01T13:59:46;92422.41;;;12.62;88.71
10518;BME280;5307;42.548;22.968;2023-04-01T14:02:42;92416.38;;;12.46;89.09
10518;BME280;5307;42.548;22.968;2023-04-01T14:05:32;92425.84;;;12.45;88.93
10518;BME280;5307;42.548;22.968;2023-04-01T14:08:14;92430.06;;;12.41;90.24
10518;BME280;5307;42.548;22.968;2023-04-01T14:10:50;92439.78;;;12.47;93.54
10518;BME280;5307;42.548;22.968;2023-04-01T14:13:24;92447.75;;;12.40;94.18
10518;BME280;5307;42.548;22.968;2023-04-01T14:16:03;92430.28;;;12.37;93.91
10518;BME280;5307;42.548;22.968;2023-04-01T14:18:58;92425.84;;;12.40;92.41
10518;BME280;5307;42.548;22.968;2023-04-01T14:21:37;92414.41;;;12.47;93.17
10518;BME280;5307;42.548;22.968;2023-04-01T14:24:42;92423.34;;;12.47;94.20
10518;BME280;5307;42.548;22.968;2023-04-01T14:27:30;92404.50;;;12.72;94.22
10518;BME280;5307;42.548;22.968;2023-04-01T14:32:52;92402.75;;;12.80;93.32
10518;BME280;5307;42.548;22.968;2023-04-01T14:35:31;92389.28;;;12.54;95.08
10518;BME280;5307;42.548;22.968;2023-04-01T14:38:27;92386.28;;;12.63;96.32
10518;BME280;5307;42.548;22.968;2023-04-01T14:41:06;92384.56;;;12.77;93.56
10518;BME280;5307;42.548;22.968;2023-04-01T14:43:52;92398.78;;;13.03;93.10
10518;BME280;5307;42.548;22.968;2023-04-01T14:47:03;92394.53;;;12.86;93.50
10518;BME280;5307;42.548;22.968;2023-04-01T14:49:35;92401.22;;;12.62;95.66
10518;BME280;5307;42.548;22.968;2023-04-01T14:52:11;92398.75;;;12.53;97.46
10518;BME280;5307;42.548;22.968;2023-04-01T14:54:42;92394.00;;;12.65;97.67
10518;BME280;5307;42.548;22.968;2023-04-01T14:57:12;92389.78;;;12.58;96.04
10518;BME280;5307;42.548;22.968;2023-04-01T14:59:40;92387.03;;;12.53;92.23